AKDT,Max TemperatureF,Mean TemperatureF,Min TemperatureF,Max Dew PointF,MeanDew PointF,Min DewpointF,Max Humidity, Mean Humidity, Min Humidity, Max Sea Level PressureIn, Mean Sea Level PressureIn, Min Sea Level PressureIn, Max VisibilityMiles, Mean VisibilityMiles, Min VisibilityMiles, Max Wind SpeedMPH, Mean Wind SpeedMPH, Max Gust SpeedMPH,PrecipitationIn, CloudCover, Events, WindDirDegrees
2012-10-1,36,34,31,34,30,27,0,0,0,29.97,29.89,29.78,10,8,3,32,19,38,0.00,6,Rain-Snow,115
2012-10-2,43,40,36,39,38,34,0,0,0,29.78,29.75,29.73,10,10,8,30,24,37,0.25,8,Rain,146
2012-10-3,43,40,37,41,39,35,0,0,0,29.94,29.89,29.79,10,8,0,18,8,22,0.06,8,,76
2012-10-4,45,43,40,43,39,35,0,0,0,29.81,29.64,29.59,10,6,2,29,20,36,0.42,8,Rain,106
2012-10-5,44,42,39,39,37,36,0,0,0,29.71,29.66,29.62,10,10,8,33,22,44,T,7,Rain,136
2012-10-6,42,41,40,39,37,35,0,0,0,29.97,29.81,29.65,10,10,7,29,22,35,0.12,7,Rain,178
2012-10-7,39,38,36,36,34,32,0,0,0,30.27,30.17,29.99,10,8,2,25,17,30,0.02,8,Rain,273
2012-10-8,36,34,32,34,27,21,0,0,0,30.58,30.41,30.27,10,10,10,26,14,30,0.00,4,,357
2012-10-9,36,32,27,23,21,20,0,0,0,30.61,30.58,30.56,10,10,10,18,12,23,0.00,0,,43
2012-10-10,34,30,25,24,22,21,0,0,0,30.57,30.50,30.38,10,10,10,10,6,12,0.00,1,,38
2012-10-11,31,27,22,23,21,19,0,0,0,30.37,30.15,29.96,10,10,10,7,6,8,0.00,1,,21
2012-10-12,32,29,25,23,20,19,0,0,0,29.95,29.89,29.83,10,10,10,24,16,28,0.00,1,,5
2012-10-13,32,30,28,28,24,19,0,0,0,29.83,29.71,29.61,10,10,9,22,12,25,0.00,8,,345
2012-10-14,29,28,26,25,20,14,0,0,0,29.60,29.54,29.50,10,10,3,22,11,24,T,6,Snow,347
2012-10-15,25,23,20,19,16,13,0,0,0,29.65,29.59,29.54,10,10,10,20,14,22,0.00,1,,354
2012-10-16,29,24,19,18,15,13,0,0,0,29.96,29.81,29.66,10,10,9,31,24,36,0.00,1,,356
2012-10-17,29,25,21,18,15,13,0,0,0,30.17,30.08,29.96,10,10,10,22,22,25,0.00,1,,355
2012-10-18,30,26,22,21,18,15,0,0,0,30.25,30.22,30.17,10,10,10,25,14,30,0.00,2,,348
2012-10-19,28,23,17,23,19,15,0,0,0,30.39,30.32,30.25,10,10,3,9,4,10,0.01,6,Snow,133
2012-10-20,28,27,25,27,24,22,0,0,0,30.47,30.44,30.40,10,8,2,25,13,29,T,8,Snow,119
2012-10-21,26,25,23,23,19,16,0,0,0,30.42,30.31,30.22,10,10,5,36,26,41,0.00,8,Snow,122
2012-10-22,25,23,21,18,17,16,0,0,0,30.57,30.35,30.24,10,7,2,32,25,37,T,8,Snow,115
2012-10-23,30,25,20,28,21,17,0,0,0,30.71,30.65,30.58,10,10,3,16,7,18,0.00,4,,62
2012-10-24,25,22,18,20,17,14,0,0,0,30.74,30.72,30.66,10,10,10,22,9,26,0.00,4,,109
2012-10-25,27,26,25,21,19,17,0,0,0,30.66,30.56,30.46,10,10,10,24,17,28,0.00,7,,123
2012-10-26,29,27,24,23,21,19,0,0,0,30.45,30.42,30.38,10,10,10,15,13,17,0.00,3,,106
2012-10-27,29,24,18,23,19,16,0,0,0,30.38,30.32,30.26,10,10,10,9,5,10,0.00,0,,11
2012-10-28,32,28,23,30,26,20,0,0,0,30.29,30.23,30.17,10,7,2,10,9,15,0.00,7,Snow,308
2012-10-29,28,25,21,23,17,13,0,0,0,30.33,30.25,30.19,10,10,8,28,20,33,T,5,Snow,328
2012-10-30,26,24,22,21,17,13,0,0,0,30.51,30.43,30.33,10,10,10,25,20,29,0.00,3,,344
2012-10-31,21,19,16,13,9,7,0,0,0,30.52,30.48,30.42,10,10,10,24,16,28,0.00,0,,9